sensor_id;sensor_type;location;lat;lon;timestamp;P1;durP1;ratioP1;P2;durP2;ratioP2
2538;SDS011;1280;49.760;9.664;2023-12-04T00:00:26;39.72;;;22.42;;
2538;SDS011;1280;49.760;9.664;2023-12-04T00:02:55;46.00;;;24.13;;
2538;SDS011;1280;49.760;9.664;2023-12-04T00:05:23;47.38;;;25.05;;
2538;SDS011;1280;49.760;9.664;2023-12-04T00:07:51;51.03;;;26.30;;
2538;SDS011;1280;49.760;9.664;2023-12-04T00:10:23;51.38;;;26.75;;
2538;SDS011;1280;49.760;9.664;2023-12-04T00:12:50;46.75;;;26.75;;
2538;SDS011;1280;49.760;9.664;2023-12-04T00:15:19;53.70;;;26.17;;
2538;SDS011;1280;49.760;9.664;2023-12-04T00:17:47;54.70;;;27.33;;
2538;SDS011;1280;49.760;9.664;2023-12-04T00:20:16;59.03;;;32.17;;
2538;SDS011;1280;49.760;9.664;2023-12-04T00:22:44;62.30;;;31.90;;
2538;SDS011;1280;49.760;9.664;2023-12-04T00:25:12;54.92;;;29.75;;
2538;SDS011;1280;49.760;9.664;2023-12-04T00:27:41;51.53;;;27.80;;
2538;SDS011;1280;49.760;9.664;2023-12-04T00:30:10;45.10;;;24.75;;
2538;SDS011;1280;49.760;9.664;2023-12-04T00:32:38;45.10;;;25.27;;
2538;SDS011;1280;49.760;9.664;2023-12-04T00:35:06;41.67;;;24.45;;
2538;SDS011;1280;49.760;9.664;2023-12-04T00:37:34;42.13;;;23.02;;
2538;SDS011;1280;49.760;9.664;2023-12-04T00:40:05;37.28;;;21.08;;
2538;SDS011;1280;49.760;9.664;2023-12-04T00:42:34;39.92;;;22.15;;
2538;SDS011;1280;49.760;9.664;2023-12-04T00:45:04;39.17;;;21.70;;
2538;SDS011;1280;49.760;9.664;2023-12-04T00:47:32;42.67;;;23.58;;
2538;SDS011;1280;49.760;9.664;2023-12-04T00:50:00;45.95;;;26.00;;
2538;SDS011;1280;49.760;9.664;2023-12-04T00:52:28;48.00;;;24.65;;
2538;SDS011;1280;49.760;9.664;2023-12-04T00:54:57;81.68;;;34.08;;
2538;SDS011;1280;49.760;9.664;2023-12-04T00:57:25;54.92;;;28.33;;
2538;SDS011;1280;49.760;9.664;2023-12-04T00:59:52;58.25;;;27.75;;
2538;SDS011;1280;49.760;9.664;2023-12-04T01:02:22;49.45;;;23.60;;
2538;SDS011;1280;49.760;9.664;2023-12-04T01:04:50;44.67;;;24.08;;
2538;SDS011;1280;49.760;9.664;2023-12-04T01:07:18;42.22;;;23.10;;
2538;SDS011;1280;49.760;9.664;2023-12-04T01:09:46;41.58;;;21.27;;
2538;SDS011;1280;49.760;9.664;2023-12-04T01:12:14;40.08;;;22.40;;
2538;SDS011;1280;49.760;9.664;2023-12-04T01:14:42;53.47;;;27.63;;
2538;SDS011;1280;49.760;9.664;2023-12-04T01:17:10;50.00;;;26.60;;
2538;SDS011;1280;49.760;9.664;2023-12-04T01:19:41;53.65;;;27.10;;
2538;SDS011;1280;49.760;9.664;2023-12-04T01:22:09;51.85;;;29.23;;
2538;SDS011;1280;49.760;9.664;2023-12-04T01:24:37;50.97;;;26.50;;
2538;SDS011;1280;49.760;9.664;2023-12-04T01:27:05;42.83;;;23.80;;
2538;SDS011;1280;49.760;9.664;2023-12-04T01:29:32;45.72;;;26.33;;
2538;SDS011;1280;49.760;9.664;2023-12-04T01:32:01;43.88;;;25.60;;
2538;SDS011;1280;49.760;9.664;2023-12-04T01:34:29;45.28;;;26.27;;
2538;SDS011;1280;49.760;9.664;2023-12-04T01:36:58;39.72;;;22.45;;
2538;SDS011;1280;49.760;9.664;2023-12-04T01:39:26;42.97;;;24.45;;
2538;SDS011;1280;49.760;9.664;2023-12-04T01:41:55;42.28;;;22.00;;
2538;SDS011;1280;49.760;9.664;2023-12-04T01:44:23;43.95;;;23.95;;
2538;SDS011;1280;49.760;9.664;2023-12-04T01:46:51;44.50;;;24.40;;
2538;SDS011;1280;49.760;9.664;2023-12-04T01:49:19;90.28;;;42.13;;
2538;SDS011;1280;49.760;9.664;2023-12-04T01:51:47;66.85;;;33.20;;
2538;SDS011;1280;49.760;9.664;2023-12-04T01:54:17;79.82;;;38.55;;
2538;SDS011;1280;49.760;9.664;2023-12-04T01:56:46;67.50;;;32.13;;
2538;SDS011;1280;49.760;9.664;2023-12-04T01:59:14;57.03;;;29.50;;
2538;SDS011;1280;49.760;9.664;2023-12-04T02:01:43;64.38;;;31.70;;
2538;SDS011;1280;49.760;9.664;2023-12-04T02:04:11;52.75;;;26.42;;
2538;SDS011;1280;49.760;9.664;2023-12-04T02:06:40;58.90;;;29.08;;
2538;SDS011;1280;49.760;9.664;2023-12-04T02:09:08;47.58;;;24.77;;
2538;SDS011;1280;49.760;9.664;2023-12-04T02:11:40;49.65;;;25.77;;
2538;SDS011;1280;49.760;9.664;2023-12-04T02:14:08;44.40;;;26.05;;
2538;SDS011;1280;49.760;9.664;2023-12-04T02:16:38;45.47;;;28.17;;
2538;SDS011;1280;49.760;9.664;2023-12-04T02:19:08;46.40;;;25.13;;
2538;SDS011;1280;49.760;9.664;2023-12-04T02:21:40;40.42;;;24.92;;
2538;SDS011;1280;49.760;9.664;2023-12-04T02:24:10;41.88;;;25.67;;
2538;SDS011;1280;49.760;9.664;2023-12-04T02:26:39;47.03;;;24.95;;
2538;SDS011;1280;49.760;9.664;2023-12-04T02:29:14;49.17;;;26.40;;
2538;SDS011;1280;49.760;9.664;2023-12-04T02:31:47;44.80;;;24.83;;
2538;SDS011;1280;49.760;9.664;2023-12-04T02:34:18;44.30;;;26.35;;
2538;SDS011;1280;49.760;9.664;2023-12-04T02:36:47;59.03;;;31.17;;
2538;SDS011;1280;49.760;9.664;2023-12-04T02:39:17;43.50;;;24.88;;
2538;SDS011;1280;49.760;9.664;2023-12-04T02:41:46;47.22;;;25.85;;
2538;SDS011;1280;49.760;9.664;2023-12-04T02:44:14;48.03;;;26.92;;
2538;SDS011;1280;49.760;9.664;2023-12-04T02:46:42;64.68;;;30.65;;
2538;SDS011;1280;49.760;9.664;2023-12-04T02:49:10;54.85;;;27.23;;
2538;SDS011;1280;49.760;9.664;2023-12-04T02:51:40;47.42;;;25.25;;
2538;SDS011;1280;49.760;9.664;2023-12-04T02:54:08;46.75;;;25.95;;
2538;SDS011;1280;49.760;9.664;2023-12-04T02:56:37;42.10;;;24.10;;
2538;SDS011;1280;49.760;9.664;2023-12-04T02:59:06;42.80;;;23.95;;
2538;SDS011;1280;49.760;9.664;2023-12-04T03:01:34;44.17;;;25.75;;
2538;SDS011;1280;49.760;9.664;2023-12-04T03:04:02;44.15;;;23.33;;
2538;SDS011;1280;49.760;9.664;2023-12-04T03:06:30;42.53;;;24.52;;
2538;SDS011;1280;49.760;9.664;2023-12-04T03:08:59;41.80;;;23.73;;
2538;SDS011;1280;49.760;9.664;2023-12-04T03:11:27;42.47;;;24.60;;
2538;SDS011;1280;49.760;9.664;2023-12-04T03:13:56;44.25;;;25.52;;
2538;SDS011;1280;49.760;9.664;2023-12-04T03:16:27;52.42;;;29.25;;
2538;SDS011;1280;49.760;9.664;2023-12-04T03:18:56;44.95;;;25.95;;
2538;SDS011;1280;49.760;9.664;2023-12-04T03:21:24;45.75;;;27.38;;
2538;SDS011;1280;49.760;9.664;2023-12-04T03:23:52;45.10;;;24.42;;
2538;SDS011;1280;49.760;9.664;2023-12-04T03:26:20;45.42;;;25.98;;
2538;SDS011;1280;49.760;9.664;2023-12-04T03:28:48;46.55;;;24.52;;
2538;SDS011;1280;49.760;9.664;2023-12-04T03:31:17;46.60;;;25.08;;
2538;SDS011;1280;49.760;9.664;2023-12-04T03:33:45;43.28;;;24.45;;
2538;SDS011;1280;49.760;9.664;2023-12-04T03:36:13;45.47;;;25.70;;
2538;SDS011;1280;49.760;9.664;2023-12-04T03:38:41;45.00;;;25.45;;
2538;SDS011;1280;49.760;9.664;2023-12-04T03:41:13;43.40;;;23.67;;
2538;SDS011;1280;49.760;9.664;2023-12-04T03:43:41;45.22;;;25.08;;
2538;SDS011;1280;49.760;9.664;2023-12-04T03:46:09;46.85;;;23.45;;
2538;SDS011;1280;49.760;9.664;2023-12-04T03:48:38;49.83;;;25.80;;
2538;SDS011;1280;49.760;9.664;2023-12-04T03:51:07;48.42;;;25.00;;
2538;SDS011;1280;49.760;9.664;2023-12-04T03:53:35;53.25;;;26.40;;
2538;SDS011;1280;49.760;9.664;2023-12-04T03:56:04;44.75;;;25.08;;
2538;SDS011;1280;49.760;9.664;2023-12-04T03:58:32;45.25;;;25.38;;
2538;SDS011;1280;49.760;9.664;2023-12-04T04:01:01;49.75;;;27.80;;
2538;SDS011;1280;49.760;9.664;2023-12-04T04:03:29;46.30;;;26.10;;
2538;SDS011;1280;49.760;9.664;2023-12-04T04:05:58;44.83;;;24.58;;
2538;SDS011;1280;49.760;9.664;2023-12-04T04:08:26;43.47;;;24.88;;
2538;SDS011;1280;49.760;9.664;2023-12-04T04:10:54;43.55;;;23.58;;
2538;SDS011;1280;49.760;9.664;2023-12-04T04:13:22;41.13;;;25.52;;
2538;SDS011;1280;49.760;9.664;2023-12-04T04:15:50;47.42;;;25.90;;
2538;SDS011;1280;49.760;9.664;2023-12-04T04:18:18;48.78;;;24.80;;
2538;SDS011;1280;49.760;9.664;2023-12-04T04:20:46;43.35;;;24.77;;
2538;SDS011;1280;49.760;9.664;2023-12-04T04:23:16;40.45;;;23.00;;
2538;SDS011;1280;49.760;9.664;2023-12-04T04:25:44;42.25;;;24.13;;
2538;SDS011;1280;49.760;9.664;2023-12-04T04:28:12;38.00;;;21.92;;
2538;SDS011;1280;49.760;9.664;2023-12-04T04:30:40;40.13;;;21.77;;
2538;SDS011;1280;49.760;9.664;2023-12-04T04:33:08;40.45;;;24.10;;
2538;SDS011;1280;49.760;9.664;2023-12-04T04:35:37;43.97;;;24.45;;
2538;SDS011;1280;49.760;9.664;2023-12-04T04:38:08;46.42;;;25.38;;
2538;SDS011;1280;49.760;9.664;2023-12-04T04:40:37;48.30;;;26.05;;
2538;SDS011;1280;49.760;9.664;2023-12-04T04:43:09;44.38;;;22.85;;
2538;SDS011;1280;49.760;9.664;2023-12-04T04:45:38;44.35;;;23.63;;
2538;SDS011;1280;49.760;9.664;2023-12-04T04:48:06;45.60;;;25.08;;
2538;SDS011;1280;49.760;9.664;2023-12-04T04:50:34;44.47;;;24.90;;
2538;SDS011;1280;49.760;9.664;2023-12-04T04:53:02;48.95;;;26.52;;
2538;SDS011;1280;49.760;9.664;2023-12-04T04:55:30;39.33;;;22.80;;
2538;SDS011;1280;49.760;9.664;2023-12-04T04:58:15;42.17;;;24.77;;
2538;SDS011;1280;49.760;9.664;2023-12-04T05:00:44;39.08;;;24.08;;
2538;SDS011;1280;49.760;9.664;2023-12-04T05:03:13;43.45;;;24.42;;
2538;SDS011;1280;49.760;9.664;2023-12-04T05:05:41;45.17;;;26.40;;
2538;SDS011;1280;49.760;9.664;2023-12-04T05:08:09;45.30;;;24.92;;
2538;SDS011;1280;49.760;9.664;2023-12-04T05:10:37;45.47;;;23.30;;
2538;SDS011;1280;49.760;9.664;2023-12-04T05:13:06;40.80;;;23.13;;
2538;SDS011;1280;49.760;9.664;2023-12-04T05:15:35;39.47;;;23.25;;
2538;SDS011;1280;49.760;9.664;2023-12-04T05:18:03;40.78;;;22.35;;
2538;SDS011;1280;49.760;9.664;2023-12-04T05:20:31;44.00;;;23.55;;
2538;SDS011;1280;49.760;9.664;2023-12-04T05:22:59;39.25;;;23.52;;
2538;SDS011;1280;49.760;9.664;2023-12-04T05:25:27;39.03;;;22.48;;
2538;SDS011;1280;49.760;9.664;2023-12-04T05:28:03;48.67;;;31.27;;
2538;SDS011;1280;49.760;9.664;2023-12-04T05:30:31;45.20;;;28.45;;
2538;SDS011;1280;49.760;9.664;2023-12-04T05:33:00;47.17;;;25.42;;
2538;SDS011;1280;49.760;9.664;2023-12-04T05:35:28;39.33;;;24.77;;
2538;SDS011;1280;49.760;9.664;2023-12-04T05:38:00;39.58;;;22.92;;
2538;SDS011;1280;49.760;9.664;2023-12-04T05:40:28;42.15;;;23.60;;
2538;SDS011;1280;49.760;9.664;2023-12-04T05:42:56;42.25;;;25.58;;
2538;SDS011;1280;49.760;9.664;2023-12-04T05:45:24;48.00;;;26.50;;
2538;SDS011;1280;49.760;9.664;2023-12-04T05:47:52;43.92;;;25.05;;
2538;SDS011;1280;49.760;9.664;2023-12-04T05:50:21;46.20;;;26.08;;
2538;SDS011;1280;49.760;9.664;2023-12-04T05:52:49;42.65;;;25.42;;
2538;SDS011;1280;49.760;9.664;2023-12-04T05:55:17;44.30;;;27.88;;
2538;SDS011;1280;49.760;9.664;2023-12-04T05:57:46;44.40;;;26.55;;
2538;SDS011;1280;49.760;9.664;2023-12-04T06:00:14;38.47;;;23.15;;
2538;SDS011;1280;49.760;9.664;2023-12-04T06:02:42;41.67;;;23.73;;
2538;SDS011;1280;49.760;9.664;2023-12-04T06:05:11;41.75;;;26.05;;
2538;SDS011;1280;49.760;9.664;2023-12-04T06:07:41;42.55;;;24.65;;
2538;SDS011;1280;49.760;9.664;2023-12-04T06:10:09;44.35;;;26.00;;
2538;SDS011;1280;49.760;9.664;2023-12-04T06:12:37;45.33;;;27.45;;
2538;SDS011;1280;49.760;9.664;2023-12-04T06:15:05;49.22;;;28.55;;
2538;SDS011;1280;49.760;9.664;2023-12-04T06:17:34;46.50;;;27.90;;
2538;SDS011;1280;49.760;9.664;2023-12-04T06:20:02;50.67;;;26.08;;
2538;SDS011;1280;49.760;9.664;2023-12-04T06:22:33;46.15;;;25.23;;
2538;SDS011;1280;49.760;9.664;2023-12-04T06:25:03;49.67;;;28.83;;
2538;SDS011;1280;49.760;9.664;2023-12-04T06:27:32;57.15;;;30.15;;
2538;SDS011;1280;49.760;9.664;2023-12-04T06:30:01;58.88;;;31.75;;
2538;SDS011;1280;49.760;9.664;2023-12-04T06:32:29;79.32;;;37.90;;
2538;SDS011;1280;49.760;9.664;2023-12-04T06:34:58;51.83;;;30.13;;
2538;SDS011;1280;49.760;9.664;2023-12-04T06:37:28;48.78;;;28.55;;
2538;SDS011;1280;49.760;9.664;2023-12-04T06:39:56;53.70;;;29.70;;
2538;SDS011;1280;49.760;9.664;2023-12-04T06:42:29;50.17;;;28.55;;
2538;SDS011;1280;49.760;9.664;2023-12-04T06:44:58;51.30;;;30.90;;
2538;SDS011;1280;49.760;9.664;2023-12-04T06:47:26;46.95;;;27.52;;
2538;SDS011;1280;49.760;9.664;2023-12-04T06:49:57;50.80;;;27.33;;
2538;SDS011;1280;49.760;9.664;2023-12-04T06:52:25;48.47;;;27.77;;
2538;SDS011;1280;49.760;9.664;2023-12-04T06:54:54;46.55;;;28.15;;
2538;SDS011;1280;49.760;9.664;2023-12-04T06:57:22;46.17;;;27.83;;
2538;SDS011;1280;49.760;9.664;2023-12-04T06:59:51;43.83;;;24.85;;
2538;SDS011;1280;49.760;9.664;2023-12-04T07:02:20;48.10;;;27.67;;
2538;SDS011;1280;49.760;9.664;2023-12-04T07:04:47;48.67;;;28.25;;
2538;SDS011;1280;49.760;9.664;2023-12-04T07:07:16;42.65;;;25.40;;
2538;SDS011;1280;49.760;9.664;2023-12-04T07:09:44;43.88;;;25.42;;
2538;SDS011;1280;49.760;9.664;2023-12-04T07:12:12;42.28;;;24.98;;
2538;SDS011;1280;49.760;9.664;2023-12-04T07:14:40;42.80;;;26.02;;
2538;SDS011;1280;49.760;9.664;2023-12-04T07:17:10;46.70;;;29.02;;
2538;SDS011;1280;49.760;9.664;2023-12-04T07:19:40;50.63;;;27.80;;
2538;SDS011;1280;49.760;9.664;2023-12-04T07:22:09;49.35;;;27.83;;
2538;SDS011;1280;49.760;9.664;2023-12-04T07:24:37;51.05;;;29.13;;
2538;SDS011;1280;49.760;9.664;2023-12-04T07:27:05;51.50;;;29.35;;
2538;SDS011;1280;49.760;9.664;2023-12-04T07:29:33;47.58;;;26.45;;
2538;SDS011;1280;49.760;9.664;2023-12-04T07:32:00;46.25;;;27.42;;
2538;SDS011;1280;49.760;9.664;2023-12-04T07:34:30;42.92;;;26.52;;
2538;SDS011;1280;49.760;9.664;2023-12-04T07:36:58;45.80;;;25.77;;
2538;SDS011;1280;49.760;9.664;2023-12-04T07:39:26;43.25;;;24.30;;
2538;SDS011;1280;49.760;9.664;2023-12-04T07:41:54;44.83;;;25.15;;
2538;SDS011;1280;49.760;9.664;2023-12-04T07:44:37;48.55;;;25.85;;
2538;SDS011;1280;49.760;9.664;2023-12-04T07:47:05;47.28;;;27.48;;
2538;SDS011;1280;49.760;9.664;2023-12-04T07:49:33;42.92;;;24.23;;
2538;SDS011;1280;49.760;9.664;2023-12-04T07:52:01;45.78;;;27.05;;
2538;SDS011;1280;49.760;9.664;2023-12-04T07:54:30;36.83;;;23.77;;
2538;SDS011;1280;49.760;9.664;2023-12-04T07:56:58;44.95;;;25.33;;
2538;SDS011;1280;49.760;9.664;2023-12-04T07:59:26;48.80;;;29.75;;
2538;SDS011;1280;49.760;9.664;2023-12-04T08:01:54;36.25;;;22.92;;
2538;SDS011;1280;49.760;9.664;2023-12-04T08:04:22;42.58;;;25.85;;
2538;SDS011;1280;49.760;9.664;2023-12-04T08:06:52;43.72;;;26.60;;
2538;SDS011;1280;49.760;9.664;2023-12-04T08:09:20;43.03;;;24.42;;
2538;SDS011;1280;49.760;9.664;2023-12-04T08:11:48;45.55;;;25.45;;
2538;SDS011;1280;49.760;9.664;2023-12-04T08:14:15;41.03;;;24.50;;
2538;SDS011;1280;49.760;9.664;2023-12-04T08:16:43;48.08;;;25.17;;
2538;SDS011;1280;49.760;9.664;2023-12-04T08:19:11;47.58;;;25.00;;
2538;SDS011;1280;49.760;9.664;2023-12-04T08:21:39;54.00;;;26.00;;
2538;SDS011;1280;49.760;9.664;2023-12-04T08:24:09;44.15;;;25.48;;
2538;SDS011;1280;49.760;9.664;2023-12-04T08:26:37;45.72;;;24.92;;
2538;SDS011;1280;49.760;9.664;2023-12-04T08:29:05;46.33;;;25.85;;
2538;SDS011;1280;49.760;9.664;2023-12-04T08:31:33;40.35;;;24.40;;
2538;SDS011;1280;49.760;9.664;2023-12-04T08:34:01;46.33;;;24.50;;
2538;SDS011;1280;49.760;9.664;2023-12-04T08:36:29;50.38;;;26.13;;
2538;SDS011;1280;49.760;9.664;2023-12-04T08:39:13;45.03;;;25.25;;
2538;SDS011;1280;49.760;9.664;2023-12-04T08:41:44;42.65;;;26.05;;
2538;SDS011;1280;49.760;9.664;2023-12-04T08:44:26;46.67;;;26.00;;
2538;SDS011;1280;49.760;9.664;2023-12-04T08:46:54;40.95;;;24.60;;
2538;SDS011;1280;49.760;9.664;2023-12-04T08:49:24;46.20;;;25.92;;
2538;SDS011;1280;49.760;9.664;2023-12-04T08:52:05;50.15;;;25.20;;
2538;SDS011;1280;49.760;9.664;2023-12-04T08:54:35;46.22;;;25.27;;
2538;SDS011;1280;49.760;9.664;2023-12-04T08:57:06;38.67;;;22.77;;
2538;SDS011;1280;49.760;9.664;2023-12-04T08:59:34;44.42;;;26.02;;
2538;SDS011;1280;49.760;9.664;2023-12-04T09:02:02;37.20;;;23.35;;
2538;SDS011;1280;49.760;9.664;2023-12-04T09:04:31;48.97;;;26.55;;
2538;SDS011;1280;49.760;9.664;2023-12-04T09:07:00;44.75;;;26.65;;
2538;SDS011;1280;49.760;9.664;2023-12-04T09:09:49;53.50;;;27.35;;
2538;SDS011;1280;49.760;9.664;2023-12-04T09:12:17;37.58;;;21.75;;
2538;SDS011;1280;49.760;9.664;2023-12-04T09:14:45;43.10;;;21.75;;
2538;SDS011;1280;49.760;9.664;2023-12-04T09:17:13;39.20;;;22.73;;
2538;SDS011;1280;49.760;9.664;2023-12-04T09:19:41;41.78;;;22.05;;
2538;SDS011;1280;49.760;9.664;2023-12-04T09:22:09;36.58;;;21.70;;
2538;SDS011;1280;49.760;9.664;2023-12-04T09:24:45;34.58;;;21.27;;
2538;SDS011;1280;49.760;9.664;2023-12-04T09:27:14;36.00;;;21.90;;
2538;SDS011;1280;49.760;9.664;2023-12-04T09:29:43;36.42;;;22.02;;
2538;SDS011;1280;49.760;9.664;2023-12-04T09:32:11;38.47;;;19.02;;
2538;SDS011;1280;49.760;9.664;2023-12-04T09:34:39;40.40;;;21.52;;
2538;SDS011;1280;49.760;9.664;2023-12-04T09:37:07;29.85;;;20.02;;
2538;SDS011;1280;49.760;9.664;2023-12-04T09:39:38;31.92;;;20.85;;
2538;SDS011;1280;49.760;9.664;2023-12-04T09:42:07;35.30;;;20.75;;
2538;SDS011;1280;49.760;9.664;2023-12-04T09:44:37;35.40;;;21.35;;
2538;SDS011;1280;49.760;9.664;2023-12-04T09:47:07;33.33;;;20.33;;
2538;SDS011;1280;49.760;9.664;2023-12-04T09:49:37;36.58;;;21.83;;
2538;SDS011;1280;49.760;9.664;2023-12-04T09:52:06;35.15;;;21.88;;
2538;SDS011;1280;49.760;9.664;2023-12-04T09:54:34;34.20;;;18.95;;
2538;SDS011;1280;49.760;9.664;2023-12-04T09:57:03;32.60;;;19.00;;
2538;SDS011;1280;49.760;9.664;2023-12-04T09:59:32;31.30;;;18.63;;
2538;SDS011;1280;49.760;9.664;2023-12-04T10:02:03;32.10;;;20.58;;
2538;SDS011;1280;49.760;9.664;2023-12-04T10:04:32;30.83;;;17.83;;
2538;SDS011;1280;49.760;9.664;2023-12-04T10:07:01;29.50;;;17.83;;
2538;SDS011;1280;49.760;9.664;2023-12-04T10:09:29;32.08;;;18.95;;
2538;SDS011;1280;49.760;9.664;2023-12-04T10:11:58;28.48;;;18.38;;
2538;SDS011;1280;49.760;9.664;2023-12-04T10:14:26;28.20;;;18.50;;
2538;SDS011;1280;49.760;9.664;2023-12-04T10:16:54;26.15;;;17.55;;
2538;SDS011;1280;49.760;9.664;2023-12-04T10:19:24;33.97;;;18.73;;
2538;SDS011;1280;49.760;9.664;2023-12-04T10:21:54;33.58;;;17.80;;
2538;SDS011;1280;49.760;9.664;2023-12-04T10:24:29;36.33;;;20.25;;
2538;SDS011;1280;49.760;9.664;2023-12-04T10:26:59;29.00;;;17.25;;
2538;SDS011;1280;49.760;9.664;2023-12-04T10:29:28;27.52;;;17.00;;
2538;SDS011;1280;49.760;9.664;2023-12-04T10:32:01;30.13;;;17.98;;
2538;SDS011;1280;49.760;9.664;2023-12-04T10:34:31;32.45;;;19.70;;
2538;SDS011;1280;49.760;9.664;2023-12-04T10:37:00;40.05;;;21.77;;
2538;SDS011;1280;49.760;9.664;2023-12-04T10:39:29;38.97;;;22.10;;
2538;SDS011;1280;49.760;9.664;2023-12-04T10:41:58;33.30;;;22.55;;
2538;SDS011;1280;49.760;9.664;2023-12-04T10:44:29;34.92;;;21.75;;
2538;SDS011;1280;49.760;9.664;2023-12-04T10:46:59;30.95;;;21.05;;
2538;SDS011;1280;49.760;9.664;2023-12-04T10:49:28;32.55;;;18.30;;
2538;SDS011;1280;49.760;9.664;2023-12-04T10:51:59;26.48;;;16.10;;
2538;SDS011;1280;49.760;9.664;2023-12-04T10:54:27;32.95;;;20.02;;
2538;SDS011;1280;49.760;9.664;2023-12-04T10:56:57;28.83;;;18.92;;
2538;SDS011;1280;49.760;9.664;2023-12-04T10:59:31;27.50;;;17.88;;
2538;SDS011;1280;49.760;9.664;2023-12-04T11:02:04;29.90;;;17.80;;
2538;SDS011;1280;49.760;9.664;2023-12-04T11:04:35;31.75;;;18.70;;
2538;SDS011;1280;49.760;9.664;2023-12-04T11:07:05;25.90;;;15.30;;
2538;SDS011;1280;49.760;9.664;2023-12-04T11:09:34;30.25;;;16.67;;
2538;SDS011;1280;49.760;9.664;2023-12-04T11:12:05;33.83;;;18.05;;
2538;SDS011;1280;49.760;9.664;2023-12-04T11:14:37;36.10;;;22.05;;
2538;SDS011;1280;49.760;9.664;2023-12-04T11:17:10;31.67;;;18.90;;
2538;SDS011;1280;49.760;9.664;2023-12-04T11:19:45;26.52;;;15.95;;
2538;SDS011;1280;49.760;9.664;2023-12-04T11:22:21;25.20;;;15.43;;
2538;SDS011;1280;49.760;9.664;2023-12-04T11:24:51;27.60;;;14.68;;
2538;SDS011;1280;49.760;9.664;2023-12-04T11:27:20;30.30;;;18.75;;
2538;SDS011;1280;49.760;9.664;2023-12-04T11:29:50;40.63;;;23.90;;
2538;SDS011;1280;49.760;9.664;2023-12-04T11:32:19;34.47;;;23.00;;
2538;SDS011;1280;49.760;9.664;2023-12-04T11:34:47;36.67;;;20.60;;
2538;SDS011;1280;49.760;9.664;2023-12-04T11:37:16;35.17;;;20.67;;
2538;SDS011;1280;49.760;9.664;2023-12-04T11:39:47;43.17;;;25.27;;
2538;SDS011;1280;49.760;9.664;2023-12-04T11:42:22;35.17;;;20.23;;
2538;SDS011;1280;49.760;9.664;2023-12-04T11:44:55;35.58;;;20.58;;
2538;SDS011;1280;49.760;9.664;2023-12-04T11:47:25;35.50;;;21.02;;
2538;SDS011;1280;49.760;9.664;2023-12-04T11:49:57;45.97;;;26.00;;
2538;SDS011;1280;49.760;9.664;2023-12-04T11:52:32;31.80;;;20.33;;
2538;SDS011;1280;49.760;9.664;2023-12-04T11:55:03;31.92;;;19.45;;
2538;SDS011;1280;49.760;9.664;2023-12-04T11:57:34;22.73;;;14.40;;
2538;SDS011;1280;49.760;9.664;2023-12-04T12:00:10;24.50;;;16.02;;
2538;SDS011;1280;49.760;9.664;2023-12-04T12:02:41;25.27;;;16.33;;
2538;SDS011;1280;49.760;9.664;2023-12-04T12:05:35;34.65;;;19.30;;
2538;SDS011;1280;49.760;9.664;2023-12-04T12:08:07;26.65;;;16.58;;
2538;SDS011;1280;49.760;9.664;2023-12-04T12:10:37;24.35;;;15.82;;
2538;SDS011;1280;49.760;9.664;2023-12-04T12:13:05;24.92;;;16.20;;
2538;SDS011;1280;49.760;9.664;2023-12-04T12:15:33;25.65;;;18.30;;
2538;SDS011;1280;49.760;9.664;2023-12-04T12:18:02;25.38;;;16.60;;
2538;SDS011;1280;49.760;9.664;2023-12-04T12:20:32;22.60;;;14.23;;
2538;SDS011;1280;49.760;9.664;2023-12-04T12:23:03;26.38;;;15.82;;
2538;SDS011;1280;49.760;9.664;2023-12-04T12:25:32;22.75;;;15.05;;
2538;SDS011;1280;49.760;9.664;2023-12-04T12:28:05;26.73;;;16.15;;
2538;SDS011;1280;49.760;9.664;2023-12-04T12:30:33;25.67;;;16.92;;
2538;SDS011;1280;49.760;9.664;2023-12-04T12:33:01;28.70;;;16.88;;
2538;SDS011;1280;49.760;9.664;2023-12-04T12:35:29;31.63;;;14.55;;
2538;SDS011;1280;49.760;9.664;2023-12-04T12:37:57;24.80;;;16.17;;
2538;SDS011;1280;49.760;9.664;2023-12-04T12:40:27;25.98;;;15.85;;
2538;SDS011;1280;49.760;9.664;2023-12-04T12:43:04;22.00;;;14.05;;
2538;SDS011;1280;49.760;9.664;2023-12-04T12:45:40;25.05;;;16.13;;
2538;SDS011;1280;49.760;9.664;2023-12-04T12:48:12;28.55;;;15.02;;
2538;SDS011;1280;49.760;9.664;2023-12-04T12:50:41;27.10;;;15.30;;
2538;SDS011;1280;49.760;9.664;2023-12-04T12:53:10;24.55;;;15.13;;
2538;SDS011;1280;49.760;9.664;2023-12-04T12:55:40;27.13;;;16.30;;
2538;SDS011;1280;49.760;9.664;2023-12-04T12:58:09;31.23;;;18.88;;
2538;SDS011;1280;49.760;9.664;2023-12-04T13:00:39;35.88;;;18.63;;
2538;SDS011;1280;49.760;9.664;2023-12-04T13:03:13;33.90;;;16.40;;
2538;SDS011;1280;49.760;9.664;2023-12-04T13:05:42;30.88;;;19.13;;
2538;SDS011;1280;49.760;9.664;2023-12-04T13:08:10;26.92;;;16.17;;
2538;SDS011;1280;49.760;9.664;2023-12-04T13:10:40;25.33;;;16.10;;
2538;SDS011;1280;49.760;9.664;2023-12-04T13:13:10;22.02;;;13.90;;
2538;SDS011;1280;49.760;9.664;2023-12-04T13:15:39;27.33;;;18.48;;
2538;SDS011;1280;49.760;9.664;2023-12-04T13:18:08;25.30;;;15.38;;
2538;SDS011;1280;49.760;9.664;2023-12-04T13:20:36;27.75;;;14.95;;
2538;SDS011;1280;49.760;9.664;2023-12-04T13:23:04;26.05;;;16.15;;
2538;SDS011;1280;49.760;9.664;2023-12-04T13:25:32;28.23;;;17.30;;
2538;SDS011;1280;49.760;9.664;2023-12-04T13:28:00;27.35;;;16.42;;
2538;SDS011;1280;49.760;9.664;2023-12-04T13:30:30;26.23;;;16.35;;
2538;SDS011;1280;49.760;9.664;2023-12-04T13:32:59;28.42;;;16.80;;
2538;SDS011;1280;49.760;9.664;2023-12-04T13:35:27;25.42;;;16.30;;
2538;SDS011;1280;49.760;9.664;2023-12-04T13:37:55;24.35;;;15.48;;
2538;SDS011;1280;49.760;9.664;2023-12-04T13:40:25;24.85;;;15.45;;
2538;SDS011;1280;49.760;9.664;2023-12-04T13:42:58;27.63;;;16.42;;
2538;SDS011;1280;49.760;9.664;2023-12-04T13:45:45;28.55;;;16.95;;
2538;SDS011;1280;49.760;9.664;2023-12-04T13:48:13;31.63;;;19.42;;
2538;SDS011;1280;49.760;9.664;2023-12-04T13:50:44;31.52;;;20.42;;
2538;SDS011;1280;49.760;9.664;2023-12-04T13:53:13;33.17;;;20.35;;
2538;SDS011;1280;49.760;9.664;2023-12-04T13:55:41;33.15;;;22.38;;
2538;SDS011;1280;49.760;9.664;2023-12-04T13:58:30;42.80;;;23.08;;
2538;SDS011;1280;49.760;9.664;2023-12-04T14:01:07;42.85;;;22.48;;
2538;SDS011;1280;49.760;9.664;2023-12-04T14:03:41;39.53;;;23.20;;
2538;SDS011;1280;49.760;9.664;2023-12-04T14:06:10;39.25;;;20.05;;
2538;SDS011;1280;49.760;9.664;2023-12-04T14:08:40;37.35;;;23.65;;
2538;SDS011;1280;49.760;9.664;2023-12-04T14:11:09;30.33;;;19.45;;
2538;SDS011;1280;49.760;9.664;2023-12-04T14:13:37;31.70;;;19.02;;
2538;SDS011;1280;49.760;9.664;2023-12-04T14:16:09;37.35;;;20.48;;
2538;SDS011;1280;49.760;9.664;2023-12-04T14:18:37;52.97;;;25.65;;
2538;SDS011;1280;49.760;9.664;2023-12-04T14:21:07;44.42;;;24.33;;
2538;SDS011;1280;49.760;9.664;2023-12-04T14:23:35;29.70;;;16.38;;
2538;SDS011;1280;49.760;9.664;2023-12-04T14:26:04;37.15;;;22.55;;
2538;SDS011;1280;49.760;9.664;2023-12-04T14:28:32;36.42;;;20.92;;
2538;SDS011;1280;49.760;9.664;2023-12-04T14:31:10;32.33;;;20.83;;
2538;SDS011;1280;49.760;9.664;2023-12-04T14:33:38;41.03;;;24.13;;
2538;SDS011;1280;49.760;9.664;2023-12-04T14:36:09;38.47;;;23.58;;
2538;SDS011;1280;49.760;9.664;2023-12-04T14:38:39;38.45;;;23.20;;
2538;SDS011;1280;49.760;9.664;2023-12-04T14:41:07;39.63;;;22.33;;
2538;SDS011;1280;49.760;9.664;2023-12-04T14:43:36;44.75;;;25.17;;
2538;SDS011;1280;49.760;9.664;2023-12-04T14:46:05;35.67;;;20.20;;
2538;SDS011;1280;49.760;9.664;2023-12-04T14:48:38;38.22;;;23.08;;
2538;SDS011;1280;49.760;9.664;2023-12-04T14:51:09;34.53;;;21.55;;
2538;SDS011;1280;49.760;9.664;2023-12-04T14:53:37;34.03;;;21.60;;
2538;SDS011;1280;49.760;9.664;2023-12-04T14:56:13;36.28;;;21.70;;
2538;SDS011;1280;49.760;9.664;2023-12-04T14:58:49;37.08;;;23.00;;
2538;SDS011;1280;49.760;9.664;2023-12-04T15:01:46;31.00;;;20.80;;